Latest Weather Observations for Loxton

IDS60801

Issued at 8:01 pm CST Wednesday 29 June 2016 (issued every 30 minutes, with the page automatically refreshed every 10 minutes)

About weather observations | Map of weather stations | Latest weather observations for SA | Other Formats
Station Details ID: 024024 Name: LOXTON RESEARCH CENTRE Lat: -34.44 Lon: 140.60 Height: 30.1 m
Data from the previous 72 hours. | See also: Recent months at Loxton
Date/Time
CST
Temp
°C
App
Temp
°C
Dew
Point
°C
Rel
Hum
%
Delta-T
°C
Wind Press
QNH
hPa
Press
MSL
hPa
Rain since
9am
mm
Dir  Spd
km/h
Gust
km/h
Spd
kts
Gust
kts
29/08:00pm 12.4 8.7 4.2 57 3.7 N 13 17 7 9 1019.2 1019.2 0.0
29/07:30pm 12.6 8.7 3.6 54 4.0 N 13 19 7 10 1019.3 1019.3 0.0
29/07:00pm 12.8 9.3 3.6 53 4.1 NNE 11 13 6 7 1019.4 1019.4 0.0
29/06:30pm 13.3 9.4 3.2 50 4.5 N 13 19 7 10 1019.4 1019.4 0.0
29/06:00pm 12.8 9.7 3.6 53 4.1 N 9 13 5 7 1019.5 1019.5 0.0
29/05:30pm 13.5 9.9 3.2 49 4.6 N 11 15 6 8 1019.5 1019.5 0.0
29/05:00pm 14.1 10.2 3.2 48 4.9 N 13 19 7 10 1019.5 1019.5 0.0
29/04:30pm 14.5 10.7 3.7 48 4.9 N 13 19 7 10 1019.8 1019.8 0.0
29/04:00pm 14.5 10.2 3.1 46 5.1 N 15 26 8 14 1020.2 1020.2 0.0
29/03:30pm 15.0 10.2 2.7 43 5.5 N 17 28 9 15 1020.6 1020.6 0.0
29/03:00pm 15.5 9.8 2.8 42 5.7 N 22 33 12 18 1020.8 1020.8 0.0
29/02:30pm 15.0 9.7 3.0 44 5.4 N 20 32 11 17 1021.1 1021.1 0.0
29/02:00pm 14.6 9.2 2.4 43 5.4 N 20 32 11 17 1021.8 1021.8 0.0
29/01:30pm 14.5 9.5 3.7 48 4.9 NNW 19 28 10 15 1022.5 1022.5 0.0
29/01:00pm 14.1 9.8 3.4 48 4.8 NNW 15 24 8 13 1023.2 1023.2 0.0
29/12:30pm 13.6 8.6 3.6 51 4.5 N 19 30 10 16 1024.0 1024.0 0.0
29/12:00pm 13.0 8.9 4.2 55 4.0 N 15 22 8 12 1024.9 1024.9 0.0
29/11:30am 12.8 8.6 3.9 54 4.0 N 15 22 8 12 1025.6 1025.6 0.0
29/11:00am 12.2 7.6 3.6 55 3.8 N 17 24 9 13 1026.1 1026.1 0.0
29/10:30am 11.9 7.3 3.5 56 3.7 N 17 24 9 13 1026.6 1026.6 0.0
29/10:00am 10.8 7.4 4.0 63 3.0 N 11 17 6 9 1027.1 1027.1 0.0
29/09:30am 9.7 6.3 4.0 67 2.5 N 11 15 6 8 1027.1 1027.1 0.0
29/09:00am 7.7 4.6 3.5 75 1.8 N 9 13 5 7 1027.0 1027.0 0.0
29/08:30am 6.0 3.2 3.1 82 1.2 NNE 7 13 4 7 1027.0 1027.0 0.0
29/08:00am 3.9 0.6 2.6 91 0.5 NNE 9 15 5 8 1027.1 1027.1 0.0
29/07:30am 0.3 - - - - NNE 7 11 4 6 1027.0 1027.0 0.0
29/07:00am -0.9 - - - - CALM 0 0 0 0 1027.0 1027.0 0.0
29/06:30am -0.7 - - - - CALM 0 0 0 0 1026.9 1026.9 0.0
29/06:00am -0.4 - - - - CALM 0 0 0 0 1026.8 1026.8 0.0
29/05:30am -0.1 - - - - CALM 0 0 0 0 1026.4 1026.4 0.0
29/05:00am -0.2 - - - - CALM 0 0 0 0 1026.3 1026.3 0.0
29/04:30am 0.1 - - - - CALM 0 0 0 0 1026.4 1026.4 0.0
29/04:00am 0.1 - - - - CALM 0 0 0 0 1026.5 1026.5 0.0
29/03:30am 0.4 - - - - CALM 0 0 0 0 1026.5 1026.5 0.0
29/03:00am 0.7 -1.3 0.1 96 0.2 CALM 0 0 0 0 1026.5 1026.5 0.0
29/02:30am 0.8 -1.1 0.5 98 0.1 CALM 0 0 0 0 1026.5 1026.5 0.0
29/02:00am 1.2 -0.6 0.9 98 0.1 CALM 0 0 0 0 1026.6 1026.6 0.0
29/01:30am 1.3 -0.6 0.8 96 0.2 CALM 0 0 0 0 1026.7 1026.7 0.0
29/01:00am 1.9 0.2 1.6 98 0.1 CALM 0 0 0 0 1026.8 1026.8 0.0
29/12:30am 2.1 0.4 1.8 98 0.1 CALM 0 0 0 0 1027.0 1027.0 0.0
29/12:00am 2.2 0.4 1.4 94 0.3 CALM 0 0 0 0 1027.2 1027.2 0.0
 
Date/Time
CST
Temp
°C
App
Temp
°C
Dew
Point
°C
Rel
Hum
%
Delta-T
°C
Wind Press
QNH
hPa
Press
MSL
hPa
Rain since
9am
mm
Dir  Spd
km/h
Gust
km/h
Spd
kts
Gust
kts
28/11:30pm 2.6 0.9 2.1 96 0.2 CALM 0 0 0 0 1027.3 1027.3 0.0
28/11:00pm 3.1 1.5 2.3 94 0.3 CALM 0 0 0 0 1027.3 1027.3 0.0
28/10:30pm 3.6 2.1 3.1 97 0.2 CALM 0 0 0 0 1027.3 1027.3 0.0
28/10:00pm 3.4 1.8 2.6 94 0.3 CALM 0 0 0 0 1027.3 1027.3 0.0
28/09:30pm 4.0 2.6 3.3 95 0.3 CALM 0 0 0 0 1027.4 1027.4 0.0
28/09:00pm 4.2 2.7 3.2 93 0.4 CALM 0 0 0 0 1027.4 1027.4 0.0
28/08:30pm 4.9 3.7 4.7 99 0.1 CALM 0 0 0 0 1027.4 1027.4 0.0
28/08:00pm 5.5 4.4 5.0 97 0.2 CALM 0 0 0 0 1027.5 1027.5 0.0
28/07:30pm 6.2 5.0 4.8 91 0.6 CALM 0 0 0 0 1027.4 1027.4 0.0
28/07:00pm 6.7 5.6 5.3 91 0.6 CALM 0 0 0 0 1027.2 1027.2 0.0
28/06:30pm 7.7 6.8 6.2 90 0.7 CALM 0 0 0 0 1027.0 1027.0 0.0
28/06:00pm 8.9 8.2 7.0 88 0.9 CALM 0 0 0 0 1026.9 1026.9 0.0
28/05:30pm 10.8 9.4 7.2 78 1.7 N 4 7 2 4 1026.8 1026.8 0.0
28/05:00pm 14.4 12.1 4.9 53 4.4 NNW 6 9 3 5 1026.7 1026.7 0.0
28/04:30pm 15.8 13.0 5.2 49 5.0 NW 9 15 5 8 1026.6 1026.6 0.0
28/04:00pm 16.6 13.3 4.4 44 5.7 NW 11 17 6 9 1026.6 1026.6 0.0
28/03:30pm 16.7 13.6 5.4 47 5.4 WNW 11 17 6 9 1026.4 1026.4 0.0
28/03:00pm 16.6 12.6 5.0 46 5.5 WNW 15 20 8 11 1026.4 1026.4 0.0
28/02:30pm 16.8 13.2 5.0 45 5.6 NW 13 20 7 11 1026.4 1026.4 0.0
28/02:00pm 16.5 13.0 5.4 48 5.3 NW 13 19 7 10 1026.5 1026.5 0.0
28/01:30pm 16.0 11.8 5.8 50 4.9 NW 17 20 9 11 1026.8 1026.8 0.0
28/01:00pm 15.3 11.9 6.1 54 4.4 NW 13 19 7 10 1026.9 1026.9 0.0
28/12:30pm 15.1 10.9 5.6 53 4.5 WNW 17 22 9 12 1027.2 1027.2 0.0
28/12:00pm 14.7 11.0 6.4 57 4.0 NW 15 24 8 13 1027.5 1027.5 0.0
28/11:30am 14.1 10.4 6.1 58 3.8 WNW 15 20 8 11 1027.8 1027.8 0.0
28/11:00am 13.3 10.0 6.3 62 3.3 WNW 13 20 7 11 1028.0 1028.0 0.0
28/10:30am 11.2 7.9 6.5 73 2.2 WNW 13 15 7 8 1028.1 1028.1 0.0
28/10:00am 9.7 6.7 6.2 79 1.6 NW 11 13 6 7 1028.0 1028.0 0.0
28/09:30am 7.9 4.8 5.4 84 1.1 NW 11 15 6 8 1027.9 1027.9 0.0
28/09:00am 6.7 3.8 4.9 88 0.8 NW 9 13 5 7 1027.7 1027.7 0.2
28/08:30am 5.7 2.4 4.3 91 0.6 NW 11 17 6 9 1027.5 1027.5 0.2
28/08:00am 4.8 1.8 4.1 95 0.3 NW 9 11 5 6 1027.2 1027.2 0.2
28/07:30am 4.1 0.6 3.6 97 0.2 NW 11 13 6 7 1026.7 1026.7 0.2
28/07:00am 4.1 0.2 3.6 97 0.2 NW 13 15 7 8 1026.3 1026.3 0.2
28/06:30am 4.1 1.0 3.6 97 0.2 NW 9 11 5 6 1026.0 1026.0 0.0
28/06:00am 4.3 2.1 3.6 95 0.3 NW 4 13 2 7 1025.7 1025.7 0.0
28/05:30am 4.5 3.2 4.0 97 0.2 CALM 0 0 0 0 1025.4 1025.4 0.0
28/05:00am 4.6 3.3 3.9 95 0.3 CALM 0 0 0 0 1025.1 1025.1 0.0
28/04:30am 4.7 3.4 4.0 95 0.3 CALM 0 0 0 0 1025.1 1025.1 0.0
28/04:00am 4.6 3.3 4.1 97 0.2 CALM 0 0 0 0 1025.0 1025.0 0.0
28/03:30am 4.8 3.5 4.3 97 0.2 CALM 0 0 0 0 1025.1 1025.1 0.0
28/03:00am 4.9 3.6 3.9 93 0.4 CALM 0 0 0 0 1025.1 1025.1 0.0
28/02:30am 5.0 3.7 4.0 93 0.4 CALM 0 0 0 0 1025.1 1025.1 0.0
28/02:00am 5.2 3.9 4.3 94 0.4 CALM 0 0 0 0 1025.0 1025.0 0.0
28/01:30am 1.4 -0.4 1.1 98 0.1 CALM 0 0 0 0 1024.8 1024.8 0.0
28/01:00am 1.5 -1.5 1.0 96 0.2 NW 6 7 3 4 1024.9 1024.9 0.0
28/12:30am 1.7 -0.4 1.4 98 0.1 NW 2 9 1 5 1024.9 1024.9 0.0
28/12:00am 1.6 -0.2 1.3 98 0.1 CALM 0 0 0 0 1024.9 1024.9 0.0
 
Date/Time
CST
Temp
°C
App
Temp
°C
Dew
Point
°C
Rel
Hum
%
Delta-T
°C
Wind Press
QNH
hPa
Press
MSL
hPa
Rain since
9am
mm
Dir  Spd
km/h
Gust
km/h
Spd
kts
Gust
kts
27/11:30pm 2.6 0.9 1.8 94 0.3 CALM 0 0 0 0 1024.9 1024.9 0.0
27/11:00pm 2.8 1.2 2.5 98 0.1 CALM 0 0 0 0 1024.7 1024.7 0.0
27/10:30pm 3.0 1.4 2.2 94 0.3 CALM 0 0 0 0 1024.7 1024.7 0.0
27/10:00pm 6.1 3.3 5.2 94 0.4 WNW 9 11 5 6 1024.5 1024.5 0.0
27/09:30pm 2.8 1.1 2.0 94 0.3 CALM 0 0 0 0 1024.4 1024.4 0.0
27/09:00pm 3.4 1.9 2.9 97 0.2 CALM 0 0 0 0 1024.2 1024.2 0.0
27/08:30pm 3.9 2.5 3.7 99 0.1 CALM 0 0 0 0 1023.9 1023.9 0.0
27/08:00pm 4.2 2.8 3.7 97 0.2 CALM 0 0 0 0 1023.6 1023.6 0.0
27/07:30pm 5.0 3.6 3.8 92 0.5 CALM 0 0 0 0 1023.5 1023.5 0.0
27/07:00pm 5.6 4.5 5.1 97 0.2 CALM 0 0 0 0 1023.1 1023.1 0.0
27/06:30pm 6.6 5.7 6.2 97 0.2 CALM 0 0 0 0 1022.9 1022.9 0.0
27/06:00pm 7.8 6.8 5.8 87 0.9 CALM 0 0 0 0 1022.6 1022.6 0.0
27/05:30pm 9.6 8.9 7.0 84 1.2 CALM 0 0 0 0 1022.1 1022.1 0.0
27/05:00pm 12.4 10.2 5.5 63 3.2 SW 6 7 3 4 1021.7 1021.7 0.0
27/04:30pm 13.9 9.5 4.6 53 4.3 SSW 17 24 9 13 1021.3 1021.3 0.0
27/04:00pm 14.3 9.6 5.9 57 4.0 SSW 20 32 11 17 1021.0 1021.0 0.0
27/03:30pm 15.2 10.5 3.3 45 5.4 SW 17 22 9 12 1020.6 1020.6 0.0
27/03:00pm 15.3 10.8 4.3 48 5.1 SSW 17 28 9 15 1020.4 1020.4 0.0
27/02:30pm 14.8 10.5 5.2 52 4.5 SW 17 26 9 14 1020.2 1020.2 0.0
27/02:00pm 14.6 9.3 5.2 53 4.4 SW 22 32 12 17 1020.1 1020.1 0.0
27/01:30pm 14.3 10.8 7.1 62 3.5 SSW 15 26 8 14 1020.1 1020.1 0.0
27/01:00pm 14.1 10.3 7.4 64 3.3 SW 17 22 9 12 1020.2 1020.2 0.0
27/12:30pm 14.2 10.4 7.5 64 3.3 SSW 17 22 9 12 1020.4 1020.4 0.0
27/12:00pm 14.1 10.9 8.3 68 2.9 SW 15 20 8 11 1020.5 1020.5 0.0
27/11:30am 13.5 9.9 8.5 72 2.5 W 17 24 9 13 1020.7 1020.7 0.0
27/11:00am 12.2 9.3 8.3 77 1.9 W 13 19 7 10 1020.9 1020.9 0.0
27/10:30am 11.9 8.9 7.8 76 2.0 W 13 19 7 10 1021.0 1021.0 0.0
27/10:00am 9.9 7.1 6.9 81 1.4 WNW 11 15 6 8 1020.8 1020.8 0.0
27/09:30am 8.4 5.4 6.2 86 1.0 NW 11 17 6 9 1020.6 1020.6 0.0
27/09:00am 7.4 4.7 5.6 88 0.8 NW 9 13 5 7 1020.4 1020.4 0.0
27/08:30am 6.8 3.6 5.2 89 0.7 NW 11 15 6 8 1020.2 1020.2 0.0
27/08:00am 5.9 4.8 5.0 94 0.4 CALM 0 0 0 0 1019.8 1019.8 0.0
27/07:30am 5.7 4.5 4.8 94 0.4 CALM 0 0 0 0 1019.5 1019.5 0.0
27/07:00am 5.4 4.2 4.7 95 0.3 CALM 0 0 0 0 1019.2 1019.2 0.0
27/06:30am 4.9 3.7 4.4 97 0.2 CALM 0 0 0 0 1018.8 1018.8 0.0
27/06:00am 5.0 3.7 4.3 95 0.3 CALM 0 0 0 0 1018.6 1018.6 0.0
27/05:30am 5.1 3.9 4.4 95 0.3 CALM 0 0 0 0 1018.3 1018.3 0.0
27/05:00am 5.1 3.9 4.4 95 0.3 CALM 0 0 0 0 1018.0 1018.0 0.0
27/04:30am 4.6 3.3 4.1 97 0.2 CALM 0 0 0 0 1018.0 1018.0 0.0
27/04:00am 4.7 3.4 4.0 95 0.3 CALM 0 0 0 0 1017.8 1017.8 0.0
27/03:30am 4.5 3.1 3.8 95 0.3 CALM 0 0 0 0 1017.8 1017.8 0.0
27/03:00am 4.2 2.8 3.7 97 0.2 CALM 0 0 0 0 1017.7 1017.7 0.0
27/02:30am 5.1 3.8 4.2 94 0.4 CALM 0 0 0 0 1017.8 1017.8 0.0
27/02:00am 4.3 2.9 3.6 95 0.3 CALM 0 0 0 0 1018.0 1018.0 0.0
27/01:30am 4.7 3.3 3.7 93 0.4 CALM 0 0 0 0 1017.9 1017.9 0.0
27/01:00am 5.8 4.5 3.9 88 0.8 CALM 0 0 0 0 1017.8 1017.8 0.0
27/12:30am 6.8 5.5 4.2 83 1.1 CALM 0 0 0 0 1017.9 1017.9 0.0
27/12:00am 4.7 3.4 4.0 95 0.3 CALM 0 0 0 0 1018.0 1018.0 0.0
 
Date/Time
CST
Temp
°C
App
Temp
°C
Dew
Point
°C
Rel
Hum
%
Delta-T
°C
Wind Press
QNH
hPa
Press
MSL
hPa
Rain since
9am
mm
Dir  Spd
km/h
Gust
km/h
Spd
kts
Gust
kts
26/11:30pm 5.7 4.4 4.3 91 0.6 CALM 0 0 0 0 1017.9 1017.9 0.0
26/11:00pm 6.7 5.6 4.9 88 0.8 CALM 0 0 0 0 1017.9 1017.9 0.0
26/10:30pm 7.8 6.6 4.4 79 1.5 CALM 0 0 0 0 1018.0 1018.0 0.0
26/10:00pm 7.0 6.0 5.4 89 0.7 CALM 0 0 0 0 1017.9 1017.9 0.0
26/09:30pm 7.6 6.5 4.9 83 1.2 CALM 0 0 0 0 1017.8 1017.8 0.0
26/09:00pm 8.3 7.1 4.7 78 1.6 CALM 0 0 0 0 1017.8 1017.8 0.0
26/08:30pm 8.7 6.1 4.1 73 2.0 NNE 7 9 4 5 1017.8 1017.8 0.0

Other Formats:

Comma delimited format used in spreadsheet applications
http://www.bom.gov.au/fwo/IDS60801/IDS60801.94682.axf

JavaScript Object Notation format (JSON) in row-major order
http://www.bom.gov.au/fwo/IDS60801/IDS60801.94682.json